Time;durP1;ratioP1;P1;durP2;ratioP2;P2;SDS_P1;SDS_P2;PMS_P1;PMS_P2;Temp;Humidity;BMP_temperature;BMP_pressure;BME280_temperature;BME280_humidity;BME280_pressure;Samples;Min_cycle;Max_cycle;Signal;HPM_P1;HPM_P2
2021/11/21 00:00:42;;;;;;;17.53;15.27;;;6.20;99.90;;;;;;5049293;28;20425;-85
2021/11/21 00:03:09;;;;;;;16.83;13.90;;;6.20;99.90;;;;;;5060687;28;20459;-84
2021/11/21 00:05:40;;;;;;;20.10;14.43;;;6.20;99.90;;;;;;5065988;28;20444;-85
2021/11/21 00:08:08;;;;;;;16.67;14.47;;;6.20;99.90;;;;;;5059515;28;20477;-84
2021/11/21 00:10:36;;;;;;;17.53;15.03;;;6.10;99.90;;;;;;5044955;28;20536;-84
2021/11/21 00:13:04;;;;;;;17.70;14.30;;;6.10;99.90;;;;;;5048266;28;20487;-85
2021/11/21 00:15:31;;;;;;;18.53;13.87;;;6.20;99.90;;;;;;5058272;28;20448;-85
2021/11/21 00:17:58;;;;;;;16.80;13.57;;;6.20;99.90;;;;;;5051195;28;20499;-85
2021/11/21 00:20:25;;;;;;;17.23;14.50;;;6.20;99.90;;;;;;5053803;28;20468;-85
2021/11/21 00:22:52;;;;;;;17.80;15.07;;;6.10;99.90;;;;;;5060953;28;20476;-85
2021/11/21 00:25:19;;;;;;;18.30;14.63;;;6.10;99.90;;;;;;5071362;28;20890;-85
2021/11/21 00:27:47;;;;;;;18.43;16.47;;;6.10;99.90;;;;;;5066654;28;20448;-86
2021/11/21 00:30:14;;;;;;;22.77;16.73;;;6.10;99.90;;;;;;5054654;28;20439;-85
2021/11/21 00:32:41;;;;;;;19.37;15.00;;;6.20;99.90;;;;;;5053728;28;20563;-85
2021/11/21 00:35:08;;;;;;;19.40;16.00;;;6.10;99.90;;;;;;5062015;28;20432;-85
2021/11/21 00:37:35;;;;;;;19.70;14.87;;;6.10;99.90;;;;;;5041314;28;20456;-85
2021/11/21 00:40:01;;;;;;;23.40;17.63;;;6.10;99.90;;;;;;5036253;28;20449;-85
2021/11/21 00:42:28;;;;;;;21.10;15.80;;;6.10;99.90;;;;;;5050242;28;20444;-85
2021/11/21 00:44:57;;;;;;;18.77;15.23;;;6.20;99.90;;;;;;5056177;28;20818;-85
2021/11/21 00:47:23;;;;;;;18.80;15.60;;;6.10;99.90;;;;;;5042364;28;20463;-85
2021/11/21 00:49:50;;;;;;;19.40;15.87;;;6.10;99.90;;;;;;5035352;28;20978;-85
2021/11/21 00:52:17;;;;;;;19.27;15.13;;;6.20;99.90;;;;;;5047593;28;20506;-85
2021/11/21 00:54:53;;;;;;;18.00;14.70;;;6.10;99.90;;;;;;5055484;28;20453;-85
2021/11/21 00:57:20;;;;;;;16.70;13.70;;;6.10;99.90;;;;;;5043779;28;20452;-85
2021/11/21 00:59:47;;;;;;;16.93;13.33;;;6.20;99.90;;;;;;5053948;28;20445;-85
2021/11/21 01:02:17;;;;;;;17.77;14.43;;;6.10;99.90;;;;;;5057584;28;20449;-85
2021/11/21 01:04:46;;;;;;;21.00;16.40;;;6.20;99.90;;;;;;5054451;28;20534;-85
2021/11/21 01:07:13;;;;;;;17.73;14.27;;;6.20;99.90;;;;;;5053401;28;20432;-85
2021/11/21 01:09:43;;;;;;;20.03;15.87;;;6.10;99.90;;;;;;5035989;28;20473;-85
2021/11/21 01:12:10;;;;;;;18.10;14.07;;;6.20;99.90;;;;;;5044237;28;20494;-86
2021/11/21 01:14:38;;;;;;;18.40;14.50;;;6.20;99.90;;;;;;5058915;28;20452;-85
2021/11/21 01:17:05;;;;;;;17.10;14.50;;;6.20;99.90;;;;;;5050682;28;20456;-85
2021/11/21 01:19:34;;;;;;;18.80;14.33;;;6.20;99.90;;;;;;5037077;28;20476;-85
2021/11/21 01:22:01;;;;;;;19.07;14.93;;;6.20;99.90;;;;;;5047451;28;20442;-85
2021/11/21 01:24:28;;;;;;;17.60;14.50;;;6.20;99.90;;;;;;5056305;28;20463;-84
2021/11/21 01:26:55;;;;;;;16.47;14.50;;;6.20;99.90;;;;;;5038151;28;20456;-85
2021/11/21 01:29:21;;;;;;;18.40;13.97;;;6.10;99.90;;;;;;5044558;28;20449;-85
2021/11/21 01:31:48;;;;;;;18.03;13.47;;;6.10;99.90;;;;;;5053421;28;20488;-85
2021/11/21 01:34:16;;;;;;;18.43;14.90;;;6.10;99.90;;;;;;5058786;28;20450;-85
2021/11/21 01:36:44;;;;;;;17.80;14.27;;;6.10;99.90;;;;;;5041410;28;20456;-85
2021/11/21 01:39:11;;;;;;;16.80;15.00;;;6.10;99.90;;;;;;5035233;28;20480;-85
2021/11/21 01:41:39;;;;;;;17.20;14.03;;;6.10;99.90;;;;;;5034296;28;20449;-85
2021/11/21 01:44:08;;;;;;;18.23;14.97;;;6.10;99.90;;;;;;5034684;28;20536;-85
2021/11/21 01:46:39;;;;;;;19.67;15.93;;;6.10;99.90;;;;;;5034270;28;20449;-85
2021/11/21 01:49:07;;;;;;;16.17;14.53;;;6.10;99.90;;;;;;5043995;28;20456;-85
2021/11/21 01:51:34;;;;;;;16.17;14.43;;;6.10;99.90;;;;;;5076544;28;20437;-84
2021/11/21 01:54:02;;;;;;;20.27;16.17;;;6.20;99.90;;;;;;5060064;28;20473;-85
2021/11/21 01:56:29;;;;;;;19.30;16.23;;;6.20;99.90;;;;;;5034594;28;20456;-84
2021/11/21 01:58:56;;;;;;;17.73;14.70;;;6.20;99.90;;;;;;5035982;28;20473;-84
2021/11/21 02:01:24;;;;;;;19.33;15.63;;;6.20;99.90;;;;;;5052821;28;20958;-85
2021/11/21 02:03:51;;;;;;;17.87;13.40;;;6.20;99.90;;;;;;5050332;28;20441;-84
2021/11/21 02:06:18;;;;;;;19.50;14.80;;;6.20;99.90;;;;;;5033202;28;20437;-84
2021/11/21 02:08:46;;;;;;;17.93;14.23;;;6.20;99.90;;;;;;5032784;28;20465;-84
2021/11/21 02:11:14;;;;;;;17.77;15.17;;;6.10;99.90;;;;;;5055694;28;20499;-85
2021/11/21 02:13:40;;;;;;;15.03;13.40;;;6.20;99.90;;;;;;5046758;28;20481;-84
2021/11/21 02:16:08;;;;;;;19.23;14.03;;;6.20;99.90;;;;;;5052753;28;20450;-85
2021/11/21 02:18:35;;;;;;;16.63;13.87;;;6.10;99.90;;;;;;5056833;28;20454;-84
2021/11/21 02:21:04;;;;;;;19.00;15.03;;;6.10;99.90;;;;;;5058927;28;20437;-84
2021/11/21 02:23:31;;;;;;;18.13;14.13;;;6.00;99.90;;;;;;5042426;28;20453;-84
2021/11/21 02:25:58;;;;;;;16.20;14.10;;;6.10;99.90;;;;;;5058038;28;20508;-85
2021/11/21 02:28:24;;;;;;;17.33;14.23;;;6.10;99.90;;;;;;5069347;28;20500;-84
2021/11/21 02:30:52;;;;;;;17.27;14.80;;;6.10;99.90;;;;;;5043193;28;20441;-85
2021/11/21 02:33:21;;;;;;;15.77;13.10;;;6.10;99.90;;;;;;5039441;28;20484;-85
2021/11/21 02:35:49;;;;;;;17.57;14.00;;;6.10;99.90;;;;;;5068036;28;20442;-85
2021/11/21 02:38:20;;;;;;;17.00;14.63;;;6.10;99.90;;;;;;5052897;28;20527;-90
2021/11/21 02:40:48;;;;;;;18.20;15.13;;;6.10;99.90;;;;;;5038838;28;20453;-85
2021/11/21 02:43:21;;;;;;;18.97;13.77;;;6.10;99.90;;;;;;5051870;28;20432;-84
2021/11/21 02:45:49;;;;;;;17.07;15.00;;;6.00;99.90;;;;;;5080422;28;20448;-85
2021/11/21 02:48:16;;;;;;;16.03;13.23;;;6.10;99.90;;;;;;5074112;28;20452;-84
2021/11/21 02:50:43;;;;;;;18.10;14.37;;;6.00;99.90;;;;;;5058720;28;20446;-84
2021/11/21 02:53:10;;;;;;;15.67;13.97;;;6.10;99.90;;;;;;5054397;28;20548;-85
2021/11/21 02:55:38;;;;;;;16.87;12.63;;;6.10;99.90;;;;;;5057777;28;20536;-84
2021/11/21 02:58:05;;;;;;;16.67;14.03;;;6.10;99.90;;;;;;5051772;28;20475;-84
2021/11/21 03:00:34;;;;;;;17.20;13.57;;;6.10;99.90;;;;;;5057545;28;20451;-85
2021/11/21 03:03:02;;;;;;;18.80;14.17;;;6.10;99.90;;;;;;5053378;28;20456;-85
2021/11/21 03:05:29;;;;;;;16.47;12.73;;;6.00;99.90;;;;;;5036133;28;20484;-86
2021/11/21 03:07:55;;;;;;;20.30;14.50;;;6.00;99.90;;;;;;5036084;28;20548;-85
2021/11/21 03:10:22;;;;;;;20.50;14.80;;;6.00;99.90;;;;;;5035944;28;20453;-86
2021/11/21 03:12:54;;;;;;;18.57;13.70;;;6.00;99.90;;;;;;5036501;28;20481;-85
2021/11/21 03:15:21;;;;;;;18.73;12.97;;;6.10;99.90;;;;;;5066290;28;20448;-86
2021/11/21 03:17:48;;;;;;;15.53;13.83;;;6.10;99.90;;;;;;5071796;28;20453;-85
2021/11/21 03:20:17;;;;;;;15.87;12.97;;;6.10;99.90;;;;;;5039531;28;20784;-86
2021/11/21 03:22:44;;;;;;;16.83;13.50;;;6.10;99.90;;;;;;5035646;28;20442;-86
2021/11/21 03:25:11;;;;;;;15.23;12.63;;;6.10;99.90;;;;;;5035699;28;20448;-86
2021/11/21 03:27:38;;;;;;;16.27;12.40;;;6.10;99.90;;;;;;5035152;28;20442;-86
2021/11/21 03:30:08;;;;;;;17.60;12.63;;;6.10;99.90;;;;;;5035073;28;20544;-85
2021/11/21 03:32:35;;;;;;;15.80;12.80;;;6.10;99.90;;;;;;5035305;28;20607;-86
2021/11/21 03:35:02;;;;;;;16.93;13.67;;;6.00;99.90;;;;;;5051733;28;20971;-85
2021/11/21 03:37:29;;;;;;;16.40;12.47;;;6.00;99.90;;;;;;5055323;28;20452;-86
2021/11/21 03:39:56;;;;;;;17.83;13.07;;;6.00;99.90;;;;;;5035381;28;20445;-85
2021/11/21 03:42:22;;;;;;;15.10;12.10;;;6.00;99.90;;;;;;5040195;28;20441;-86
2021/11/21 03:44:49;;;;;;;14.73;12.33;;;6.00;99.90;;;;;;5042189;28;20460;-86
2021/11/21 03:47:18;;;;;;;12.13;10.60;;;6.00;99.90;;;;;;5052112;28;20444;-86
2021/11/21 03:49:45;;;;;;;11.53;10.10;;;6.00;99.90;;;;;;5069660;28;20463;-86
2021/11/21 03:52:12;;;;;;;14.03;11.77;;;6.00;99.90;;;;;;5074771;28;20420;-86
2021/11/21 03:54:39;;;;;;;12.20;11.00;;;6.00;99.90;;;;;;5053349;28;20473;-86
2021/11/21 03:57:06;;;;;;;14.63;11.70;;;6.00;99.90;;;;;;5041927;28;20499;-86
2021/11/21 03:59:33;;;;;;;12.50;11.20;;;5.90;99.90;;;;;;5055184;28;20464;-86
2021/11/21 04:02:01;;;;;;;16.60;14.00;;;6.00;99.90;;;;;;5058119;28;20445;-86
2021/11/21 04:04:31;;;;;;;13.13;10.93;;;6.00;99.90;;;;;;5035089;28;20453;-86
2021/11/21 04:07:00;;;;;;;14.60;12.60;;;5.90;99.90;;;;;;5035410;28;20446;-86
2021/11/21 04:09:27;;;;;;;15.97;13.17;;;6.00;99.90;;;;;;5035962;28;20480;-86
2021/11/21 04:11:54;;;;;;;18.17;14.43;;;5.90;99.90;;;;;;5035850;28;20805;-86
2021/11/21 04:14:21;;;;;;;14.83;12.57;;;5.80;99.90;;;;;;5035728;28;20480;-86
2021/11/21 04:16:49;;;;;;;14.77;13.17;;;5.80;99.90;;;;;;5035908;28;20449;-86
2021/11/21 04:19:16;;;;;;;13.40;11.40;;;5.80;99.90;;;;;;5035306;28;20461;-86
2021/11/21 04:21:44;;;;;;;13.47;11.70;;;5.90;99.90;;;;;;5034296;28;20453;-87
2021/11/21 04:24:13;;;;;;;14.17;11.00;;;5.80;99.90;;;;;;5055317;28;20860;-86
2021/11/21 04:26:41;;;;;;;13.43;11.63;;;5.80;99.90;;;;;;5066429;28;20449;-86
2021/11/21 04:29:08;;;;;;;13.70;11.70;;;5.90;99.90;;;;;;5051956;28;20477;-86
2021/11/21 04:31:35;;;;;;;13.40;11.47;;;5.80;99.90;;;;;;5040951;28;20440;-86
2021/11/21 04:34:01;;;;;;;12.97;11.40;;;5.80;99.90;;;;;;5048775;28;20484;-86
2021/11/21 04:36:28;;;;;;;13.37;11.33;;;5.80;99.90;;;;;;5058611;28;20452;-86
2021/11/21 04:38:57;;;;;;;15.90;12.33;;;5.70;99.90;;;;;;5042011;28;20549;-86
2021/11/21 04:41:23;;;;;;;15.83;12.00;;;5.70;99.90;;;;;;5055277;28;20425;-86
2021/11/21 04:43:50;;;;;;;13.03;11.30;;;5.70;99.90;;;;;;5055786;28;20944;-86
2021/11/21 04:46:17;;;;;;;12.97;10.57;;;5.70;99.90;;;;;;5058660;28;20451;-86
2021/11/21 04:48:44;;;;;;;12.47;10.37;;;5.70;99.90;;;;;;5051733;28;21008;-86
2021/11/21 04:51:11;;;;;;;14.30;12.63;;;5.70;99.90;;;;;;5037536;28;20487;-86
2021/11/21 04:53:39;;;;;;;13.47;10.80;;;5.70;99.90;;;;;;5059297;28;20699;-86
2021/11/21 04:56:07;;;;;;;11.70;10.47;;;5.70;99.90;;;;;;5057708;28;20502;-86
2021/11/21 04:58:34;;;;;;;12.27;10.90;;;5.70;99.90;;;;;;5052278;28;20464;-86
2021/11/21 05:01:01;;;;;;;13.40;11.40;;;5.60;99.90;;;;;;5052912;28;20448;-86
2021/11/21 05:03:28;;;;;;;13.03;10.67;;;5.60;99.90;;;;;;5046290;28;20442;-86
2021/11/21 05:05:55;;;;;;;13.17;10.47;;;5.50;99.90;;;;;;5034909;28;20433;-85
2021/11/21 05:08:23;;;;;;;18.43;13.53;;;5.50;99.90;;;;;;5038511;28;20471;-86
2021/11/21 05:10:50;;;;;;;17.67;13.60;;;5.50;99.90;;;;;;5053040;28;20451;-86
2021/11/21 05:13:18;;;;;;;15.63;13.87;;;5.50;99.90;;;;;;5048637;28;20511;-86
2021/11/21 05:15:45;;;;;;;15.87;12.90;;;5.50;99.90;;;;;;5036549;28;20453;-86
2021/11/21 05:18:12;;;;;;;13.63;10.97;;;5.50;99.90;;;;;;5039117;28;20475;-86
2021/11/21 05:20:38;;;;;;;11.20;10.07;;;5.50;99.90;;;;;;5059872;28;20448;-86
2021/11/21 05:23:05;;;;;;;13.37;11.70;;;5.50;99.90;;;;;;5049997;28;20444;-85
2021/11/21 05:25:32;;;;;;;12.37;11.07;;;5.50;99.90;;;;;;5032887;28;20938;-86
2021/11/21 05:27:59;;;;;;;11.07;9.20;;;5.50;99.90;;;;;;5033910;28;20480;-86
2021/11/21 05:30:27;;;;;;;11.53;10.17;;;5.40;99.90;;;;;;5033988;28;20476;-84
2021/11/21 05:32:54;;;;;;;12.10;10.80;;;5.40;99.90;;;;;;5038212;28;20454;-84
2021/11/21 05:35:21;;;;;;;12.43;10.07;;;5.40;99.90;;;;;;5056289;28;20551;-84
2021/11/21 05:37:50;;;;;;;13.30;11.00;;;5.30;99.90;;;;;;5067279;28;20447;-85
2021/11/21 05:40:18;;;;;;;12.50;11.13;;;5.30;99.90;;;;;;5087797;22;20496;-87
2021/11/21 05:42:45;;;;;;;13.83;12.40;;;5.20;99.90;;;;;;5056574;28;20444;-88
2021/11/21 05:45:12;;;;;;;17.67;13.70;;;5.20;99.90;;;;;;5059724;28;20967;-85
2021/11/21 05:47:41;;;;;;;13.23;11.80;;;5.20;99.90;;;;;;5060138;28;20443;-87
2021/11/21 05:50:12;;;;;;;15.90;12.80;;;5.20;99.90;;;;;;5056725;28;20467;-88
2021/11/21 05:52:40;;;;;;;12.60;11.30;;;5.10;99.90;;;;;;5073411;28;20450;-88
2021/11/21 05:55:06;;;;;;;13.40;12.00;;;5.10;99.90;;;;;;5043788;28;20488;-87
2021/11/21 05:57:33;;;;;;;13.63;11.70;;;5.10;99.90;;;;;;5041970;28;20443;-88
2021/11/21 06:00:00;;;;;;;13.50;11.20;;;5.00;99.90;;;;;;5059749;28;20468;-87
2021/11/21 06:02:27;;;;;;;12.90;11.50;;;5.00;99.90;;;;;;5062136;28;20451;-87
2021/11/21 06:04:55;;;;;;;13.67;11.20;;;4.90;99.90;;;;;;5046479;28;20452;-87
2021/11/21 06:07:21;;;;;;;12.20;11.00;;;5.00;99.90;;;;;;5050806;28;20464;-88
2021/11/21 06:09:48;;;;;;;13.00;11.00;;;5.00;99.90;;;;;;5060215;28;20457;-87
2021/11/21 06:12:15;;;;;;;15.20;12.97;;;5.00;99.90;;;;;;5055375;28;20450;-87
2021/11/21 06:14:42;;;;;;;12.17;10.33;;;5.00;99.90;;;;;;5041309;28;20511;-87
2021/11/21 06:17:09;;;;;;;12.70;11.40;;;4.90;99.90;;;;;;5042865;28;20448;-87
2021/11/21 06:19:38;;;;;;;12.70;11.27;;;4.90;99.90;;;;;;5055632;28;20476;-87
2021/11/21 06:22:06;;;;;;;15.43;12.40;;;4.80;99.90;;;;;;5051290;28;20511;-88
2021/11/21 06:24:33;;;;;;;13.50;12.00;;;4.80;99.90;;;;;;5070831;28;20440;-86
2021/11/21 06:27:00;;;;;;;13.93;11.63;;;4.80;99.90;;;;;;5075882;28;20433;-88
2021/11/21 06:29:26;;;;;;;15.00;12.80;;;4.80;99.90;;;;;;5043277;28;20473;-88
2021/11/21 06:31:53;;;;;;;16.43;13.30;;;4.70;99.90;;;;;;5043545;28;20456;-89
2021/11/21 06:34:20;;;;;;;13.73;12.00;;;4.80;99.90;;;;;;5060648;28;20567;-87
2021/11/21 06:36:47;;;;;;;16.27;13.50;;;4.70;99.90;;;;;;5067188;28;20428;-87
2021/11/21 06:39:16;;;;;;;15.67;12.57;;;4.70;99.90;;;;;;5049870;28;20476;-88
2021/11/21 06:41:42;;;;;;;18.57;12.87;;;4.70;99.90;;;;;;5056446;28;20452;-87
2021/11/21 06:44:10;;;;;;;16.70;12.07;;;4.70;99.90;;;;;;5078140;28;20420;-86
2021/11/21 06:46:37;;;;;;;21.53;12.97;;;4.70;99.90;;;;;;5068869;28;20442;-87
2021/11/21 06:49:04;;;;;;;15.23;11.90;;;4.70;99.90;;;;;;5043994;28;20530;-86
2021/11/21 06:51:30;;;;;;;16.90;12.87;;;4.70;99.90;;;;;;5039301;28;20452;-89
2021/11/21 06:53:58;;;;;;;16.93;14.03;;;4.70;99.90;;;;;;5058328;28;21014;-87
2021/11/21 06:56:29;;;;;;;14.60;11.70;;;4.80;99.90;;;;;;5062386;28;20456;-87
2021/11/21 06:58:56;;;;;;;13.30;11.60;;;4.90;99.90;;;;;;5059152;28;20476;-87
2021/11/21 07:01:23;;;;;;;15.07;13.03;;;4.80;99.90;;;;;;5062012;28;20505;-87
2021/11/21 07:03:49;;;;;;;14.73;12.77;;;4.90;99.90;;;;;;5043726;28;20445;-87
2021/11/21 07:06:29;;;;;;;14.93;11.70;;;5.00;99.90;;;;;;5041646;28;20941;-87
2021/11/21 07:08:56;;;;;;;14.70;12.80;;;4.90;99.90;;;;;;5041928;28;20469;-87
2021/11/21 07:11:23;;;;;;;15.93;12.73;;;4.90;99.90;;;;;;5038703;28;20445;-87
2021/11/21 07:13:51;;;;;;;16.90;12.67;;;4.80;99.90;;;;;;5064645;28;20523;-86
2021/11/21 07:16:18;;;;;;;15.20;12.13;;;4.80;99.90;;;;;;5061089;28;20445;-87
2021/11/21 07:18:45;;;;;;;14.23;12.70;;;4.80;99.90;;;;;;5044373;28;20469;-88
2021/11/21 07:21:11;;;;;;;17.67;12.73;;;4.70;99.90;;;;;;5041349;28;20448;-86
2021/11/21 07:23:38;;;;;;;15.83;13.73;;;4.80;99.90;;;;;;5050338;28;20459;-87
2021/11/21 07:26:05;;;;;;;16.20;13.13;;;4.80;99.90;;;;;;5044270;28;20452;-88
2021/11/21 07:28:32;;;;;;;19.93;13.10;;;4.80;99.90;;;;;;5044765;28;21063;-88
2021/11/21 07:31:00;;;;;;;16.47;14.40;;;4.90;99.90;;;;;;5045161;28;20448;-88
2021/11/21 07:33:27;;;;;;;17.93;13.63;;;4.80;99.90;;;;;;5058791;28;20451;-89
2021/11/21 07:35:54;;;;;;;16.40;12.80;;;4.80;99.90;;;;;;5070676;28;20424;-86
2021/11/21 07:38:21;;;;;;;17.50;12.03;;;4.80;99.90;;;;;;5062359;28;20452;-88
2021/11/21 07:40:48;;;;;;;16.50;12.83;;;4.80;99.90;;;;;;5047458;28;20464;-86
2021/11/21 07:43:16;;;;;;;17.83;14.07;;;4.80;99.90;;;;;;5068059;28;20549;-87
2021/11/21 07:45:43;;;;;;;15.97;13.10;;;4.80;99.90;;;;;;5066924;28;20534;-86
2021/11/21 07:48:11;;;;;;;17.60;12.97;;;4.80;99.90;;;;;;5055542;28;20823;-87
2021/11/21 07:50:38;;;;;;;16.00;12.70;;;4.80;99.90;;;;;;5042256;28;20461;-88
2021/11/21 07:53:04;;;;;;;17.80;11.97;;;4.80;99.90;;;;;;5066017;28;20443;-87
2021/11/21 07:55:31;;;;;;;19.07;13.57;;;4.90;99.90;;;;;;5065685;28;20472;-87
2021/11/21 07:57:58;;;;;;;16.60;12.50;;;5.00;99.90;;;;;;5043781;28;20499;-87
2021/11/21 08:00:25;;;;;;;19.67;13.50;;;5.00;99.90;;;;;;5043639;28;20475;-87
2021/11/21 08:02:51;;;;;;;16.30;13.50;;;5.00;99.90;;;;;;5057274;28;20452;-88
2021/11/21 08:05:19;;;;;;;16.63;13.07;;;5.00;99.90;;;;;;5048467;28;20469;-87
2021/11/21 08:07:46;;;;;;;18.77;13.40;;;5.10;99.90;;;;;;5044882;28;20548;-87
2021/11/21 08:10:13;;;;;;;15.80;13.30;;;5.00;99.90;;;;;;5043276;28;20488;-87
2021/11/21 08:12:40;;;;;;;14.67;11.40;;;5.10;99.90;;;;;;5076092;28;20459;-86
2021/11/21 08:15:07;;;;;;;17.93;13.03;;;5.00;99.90;;;;;;5064049;28;20487;-87
2021/11/21 08:17:34;;;;;;;17.87;13.57;;;5.00;99.90;;;;;;5064092;28;20448;-88
2021/11/21 08:20:01;;;;;;;17.23;14.70;;;5.10;99.90;;;;;;5070333;28;20980;-87
2021/11/21 08:22:29;;;;;;;18.00;13.73;;;5.00;99.90;;;;;;5064743;28;20460;-86
2021/11/21 08:24:56;;;;;;;15.87;13.23;;;5.00;99.90;;;;;;5052914;28;20452;-86
2021/11/21 08:27:22;;;;;;;16.20;13.30;;;5.10;99.90;;;;;;5049880;28;20473;-88
2021/11/21 08:29:50;;;;;;;15.90;12.93;;;5.00;99.90;;;;;;5047488;28;20473;-87
2021/11/21 08:32:17;;;;;;;18.70;14.40;;;5.10;99.90;;;;;;5043754;28;20472;-87
2021/11/21 08:34:44;;;;;;;20.10;14.47;;;5.10;99.90;;;;;;5044409;28;20481;-88
2021/11/21 08:37:11;;;;;;;17.97;14.63;;;5.10;99.90;;;;;;5057685;28;20440;-87
2021/11/21 08:39:39;;;;;;;17.70;14.10;;;5.00;99.90;;;;;;5047321;28;20468;-87
2021/11/21 08:42:06;;;;;;;21.90;12.90;;;5.10;99.90;;;;;;5061232;28;20459;-87
2021/11/21 08:44:33;;;;;;;22.10;15.00;;;5.10;99.90;;;;;;5067783;28;20487;-87
2021/11/21 08:47:00;;;;;;;19.53;13.17;;;5.10;99.90;;;;;;5067652;28;20452;-88
2021/11/21 08:49:27;;;;;;;17.73;14.03;;;5.10;99.90;;;;;;5059838;28;20992;-88
2021/11/21 08:51:54;;;;;;;19.47;15.40;;;5.10;99.90;;;;;;5057242;28;20448;-87
2021/11/21 08:54:21;;;;;;;20.63;15.50;;;5.20;99.90;;;;;;5060837;28;20476;-87
2021/11/21 08:56:50;;;;;;;21.37;14.80;;;5.20;99.90;;;;;;5041893;28;20999;-87
2021/11/21 08:59:18;;;;;;;23.77;17.23;;;5.40;99.90;;;;;;5040133;28;20472;-88
2021/11/21 09:01:45;;;;;;;22.80;17.10;;;5.40;99.90;;;;;;5058940;28;20479;-88
2021/11/21 09:04:13;;;;;;;21.70;15.30;;;5.50;99.90;;;;;;5059160;28;20447;-87
2021/11/21 09:06:40;;;;;;;18.50;14.97;;;5.60;99.90;;;;;;5042352;28;21040;-87
2021/11/21 09:09:07;;;;;;;20.20;15.47;;;5.60;99.90;;;;;;5044187;28;20480;-88
2021/11/21 09:11:35;;;;;;;17.00;14.00;;;5.60;99.90;;;;;;5057296;28;20457;-86
2021/11/21 09:14:04;;;;;;;20.70;15.10;;;5.60;99.90;;;;;;5062817;28;20514;-88
2021/11/21 09:16:31;;;;;;;23.90;15.73;;;5.60;99.90;;;;;;5061771;28;20455;-88
2021/11/21 09:18:58;;;;;;;16.27;13.33;;;5.60;99.90;;;;;;5062049;28;21012;-90
2021/11/21 09:21:25;;;;;;;18.73;14.80;;;5.60;99.90;;;;;;5047399;28;20453;-89
2021/11/21 09:23:52;;;;;;;18.67;14.07;;;5.60;99.90;;;;;;5049479;28;20444;-88
2021/11/21 09:26:19;;;;;;;24.30;16.97;;;5.70;99.90;;;;;;5065656;28;20444;-88
2021/11/21 09:28:46;;;;;;;20.30;12.50;;;5.70;99.90;;;;;;5075171;28;20535;-91
2021/11/21 09:31:14;;;;;;;21.70;14.73;;;5.70;99.90;;;;;;5053081;28;20456;-89
2021/11/21 09:33:41;;;;;;;20.87;14.77;;;5.70;99.90;;;;;;5048053;28;20451;-89
2021/11/21 09:36:10;;;;;;;22.27;15.63;;;5.80;99.90;;;;;;5048110;28;20477;-89
2021/11/21 09:38:37;;;;;;;17.80;11.93;;;5.70;99.90;;;;;;5044602;28;20456;-89
2021/11/21 09:41:04;;;;;;;14.27;11.47;;;5.80;99.90;;;;;;5052512;28;20449;-90
2021/11/21 09:43:31;;;;;;;14.83;11.90;;;5.80;99.90;;;;;;5061785;28;20531;-90
2021/11/21 09:45:57;;;;;;;14.77;10.33;;;5.90;99.90;;;;;;5043333;28;20440;-89
2021/11/21 09:48:30;;;;;;;17.23;12.87;;;5.90;99.90;;;;;;5044614;28;20452;-88
2021/11/21 09:50:57;;;;;;;16.60;13.20;;;6.00;99.90;;;;;;5048325;28;20450;-89
2021/11/21 09:53:25;;;;;;;17.13;14.10;;;6.00;99.90;;;;;;5048156;28;20818;-89
2021/11/21 09:55:53;;;;;;;18.43;14.10;;;5.90;99.90;;;;;;5065023;28;20466;-87
2021/11/21 09:58:19;;;;;;;15.57;13.00;;;5.90;99.90;;;;;;5077683;28;20460;-87
2021/11/21 10:00:46;;;;;;;16.30;12.50;;;5.80;99.90;;;;;;5068072;28;21001;-91
2021/11/21 10:03:18;;;;;;;17.07;12.30;;;5.80;99.90;;;;;;5051121;28;20518;-89
2021/11/21 10:05:47;;;;;;;18.17;13.57;;;5.80;99.90;;;;;;5070561;28;20440;-90
2021/11/21 10:08:16;;;;;;;17.23;13.30;;;5.80;99.90;;;;;;5067345;28;20570;-89
2021/11/21 10:10:45;;;;;;;18.80;13.80;;;5.80;99.90;;;;;;5051711;28;20465;-91
2021/11/21 10:13:34;;;;;;;16.43;11.90;;;5.70;99.90;;;;;;5046948;28;20437;-90
2021/11/21 10:16:30;;;;;;;16.33;13.00;;;5.70;99.90;;;;;;5025816;28;20474;-90
2021/11/21 10:18:58;;;;;;;17.73;13.33;;;5.70;99.90;;;;;;5038114;28;21230;-90
2021/11/21 10:21:28;;;;;;;18.73;14.37;;;5.70;99.90;;;;;;5063056;28;20458;-88
2021/11/21 10:24:12;;;;;;;18.27;13.03;;;5.80;99.90;;;;;;5060471;28;20441;-89
2021/11/21 10:26:40;;;;;;;14.77;12.23;;;5.80;99.90;;;;;;5049581;28;20444;-88
2021/11/21 10:29:26;;;;;;;17.30;12.33;;;5.80;99.90;;;;;;5050812;28;20468;-89
2021/11/21 10:31:53;;;;;;;15.60;13.57;;;5.80;99.90;;;;;;5054266;28;20440;-89
2021/11/21 10:34:20;;;;;;;15.87;11.77;;;5.80;99.90;;;;;;5057786;28;20441;-88
2021/11/21 10:36:48;;;;;;;17.83;13.57;;;5.70;99.90;;;;;;5066994;28;21076;-88
2021/11/21 10:39:20;;;;;;;18.40;13.10;;;5.70;99.90;;;;;;5057999;28;20479;-88
2021/11/21 10:41:51;;;;;;;17.83;13.57;;;5.60;99.90;;;;;;5069374;28;20456;-89
2021/11/21 10:44:20;;;;;;;19.17;14.10;;;5.60;99.90;;;;;;5058429;28;20507;-88
2021/11/21 10:46:48;;;;;;;20.10;14.60;;;5.50;99.90;;;;;;5054902;28;20445;-87
2021/11/21 10:49:23;;;;;;;17.70;12.40;;;5.50;99.90;;;;;;5066133;28;20468;-89
2021/11/21 10:52:05;;;;;;;19.10;14.00;;;5.50;99.90;;;;;;5072261;28;20499;-89
2021/11/21 10:54:34;;;;;;;16.40;12.23;;;5.50;99.90;;;;;;5066434;28;20445;-88
2021/11/21 10:57:03;;;;;;;18.20;13.33;;;5.50;99.90;;;;;;5061912;28;20442;-88
2021/11/21 10:59:41;;;;;;;22.93;14.60;;;5.40;99.90;;;;;;5063985;28;20471;-89
2021/11/21 11:02:13;;;;;;;21.57;14.43;;;5.50;99.90;;;;;;5060747;28;20440;-89
2021/11/21 11:05:00;;;;;;;20.83;16.10;;;5.40;99.90;;;;;;5064081;28;20444;-88
2021/11/21 11:07:29;;;;;;;19.87;13.87;;;5.40;99.90;;;;;;5059159;28;20443;-88
2021/11/21 11:09:57;;;;;;;18.40;13.80;;;5.40;99.90;;;;;;5055785;28;20566;-88
2021/11/21 11:12:25;;;;;;;18.97;13.63;;;5.40;99.90;;;;;;5052824;28;20437;-87
2021/11/21 11:14:56;;;;;;;19.77;15.10;;;5.30;99.90;;;;;;5047730;28;20471;-88
2021/11/21 11:17:24;;;;;;;20.63;15.50;;;5.30;99.90;;;;;;5048370;28;20462;-87
2021/11/21 11:19:51;;;;;;;19.20;14.00;;;5.30;99.90;;;;;;5044360;28;20483;-89
2021/11/21 11:22:18;;;;;;;18.40;14.10;;;5.30;99.90;;;;;;5044493;28;20429;-88
2021/11/21 11:24:48;;;;;;;20.90;14.83;;;5.30;99.90;;;;;;5046027;28;20449;-88
2021/11/21 11:27:25;;;;;;;19.47;15.73;;;5.30;99.90;;;;;;5044766;28;20527;-87
2021/11/21 11:29:52;;;;;;;22.90;14.50;;;5.30;99.90;;;;;;5049876;28;20472;-86
2021/11/21 11:32:22;;;;;;;22.00;14.63;;;5.30;99.90;;;;;;5063807;28;20453;-87
2021/11/21 11:34:49;;;;;;;21.87;14.10;;;5.30;99.90;;;;;;5051674;28;20500;-88
2021/11/21 11:37:26;;;;;;;24.07;17.17;;;5.20;99.90;;;;;;5045406;28;20932;-87
2021/11/21 11:39:54;;;;;;;26.80;15.97;;;5.20;99.90;;;;;;5042962;28;20480;-87
2021/11/21 11:42:38;;;;;;;22.50;14.90;;;5.20;99.90;;;;;;5045069;28;20437;-87
2021/11/21 11:45:10;;;;;;;24.70;17.50;;;5.20;99.90;;;;;;5042934;28;20439;-88
2021/11/21 11:47:38;;;;;;;21.47;16.00;;;5.30;99.90;;;;;;5043750;28;20515;-87
2021/11/21 11:50:06;;;;;;;21.50;15.33;;;5.30;99.90;;;;;;5045190;28;20476;-87
2021/11/21 11:52:52;;;;;;;23.47;16.80;;;5.30;99.90;;;;;;5044394;28;20476;-88
2021/11/21 11:55:21;;;;;;;23.87;16.90;;;5.30;99.90;;;;;;5061916;28;20460;-85
2021/11/21 11:57:48;;;;;;;19.53;15.90;;;5.40;99.90;;;;;;5056150;28;20447;-87
2021/11/21 12:00:29;;;;;;;21.30;16.67;;;5.30;99.90;;;;;;5049053;28;20468;-88
2021/11/21 12:02:58;;;;;;;21.93;17.07;;;5.30;99.90;;;;;;5056771;28;20424;-86
2021/11/21 12:05:31;;;;;;;22.20;15.97;;;5.40;99.90;;;;;;5060500;28;20452;-88
2021/11/21 12:08:15;;;;;;;21.30;15.57;;;5.40;99.90;;;;;;5045107;28;20444;-88
2021/11/21 12:10:49;;;;;;;24.00;15.20;;;5.40;99.90;;;;;;5053777;28;20472;-89
2021/11/21 12:13:31;;;;;;;22.03;15.33;;;5.30;99.90;;;;;;5053234;28;20444;-88
2021/11/21 12:16:01;;;;;;;18.33;14.00;;;5.40;99.90;;;;;;5052566;28;20474;-88
2021/11/21 12:18:58;;;;;;;23.80;16.37;;;5.30;99.90;;;;;;5054214;28;20449;-86
2021/11/21 12:21:37;;;;;;;26.17;17.17;;;5.30;99.90;;;;;;5045082;28;20453;-88
2021/11/21 12:24:05;;;;;;;23.33;15.40;;;5.30;99.90;;;;;;5046193;28;20453;-87
2021/11/21 12:26:41;;;;;;;25.03;15.60;;;5.30;99.90;;;;;;5049939;28;20499;-88
2021/11/21 12:29:23;;;;;;;22.90;16.43;;;5.40;99.90;;;;;;5053344;28;20468;-88
2021/11/21 12:31:51;;;;;;;20.00;15.37;;;5.40;99.90;;;;;;5051938;28;20484;-86
2021/11/21 12:34:39;;;;;;;21.20;15.20;;;5.60;99.90;;;;;;5051954;28;20428;-89
2021/11/21 12:37:25;;;;;;;17.43;15.07;;;5.60;99.90;;;;;;5051450;28;20488;-86
2021/11/21 12:39:54;;;;;;;22.33;16.70;;;5.60;99.90;;;;;;5052235;28;20480;-87
2021/11/21 12:42:29;;;;;;;20.57;15.57;;;5.50;99.90;;;;;;5050140;28;20448;-87